createdAt,value
2022-12-10T00:00:46.675Z,34.80
2022-12-10T00:03:22.349Z,33.30
2022-12-10T00:05:54.440Z,36.30
2022-12-10T00:08:26.610Z,32.50
2022-12-10T00:10:59.137Z,33.10
2022-12-10T00:13:31.253Z,34.40
2022-12-10T00:16:04.847Z,33.20
2022-12-10T00:18:38.739Z,38.70
2022-12-10T00:21:12.723Z,37.00
2022-12-10T00:23:44.844Z,33.10
2022-12-10T00:26:18.717Z,34.50
2022-12-10T00:28:51.814Z,33.80
2022-12-10T00:31:26.551Z,36.80
2022-12-10T00:34:00.350Z,40.80
2022-12-10T00:36:35.050Z,34.20
2022-12-10T00:39:08.243Z,34.50
2022-12-10T00:41:40.718Z,30.80
2022-12-10T00:44:13.506Z,31.80
2022-12-10T00:46:46.028Z,29.20
2022-12-10T00:49:18.093Z,34.60
2022-12-10T00:51:50.185Z,34.50
2022-12-10T00:54:22.328Z,34.50
2022-12-10T00:56:54.590Z,35.30
2022-12-10T00:59:26.718Z,34.60
2022-12-10T01:01:59.472Z,32.60
2022-12-10T01:04:31.769Z,40.20
2022-12-10T01:07:08.196Z,34.70
2022-12-10T01:09:43.272Z,34.30
2022-12-10T01:12:15.493Z,34.20
2022-12-10T01:14:47.614Z,32.00
2022-12-10T01:17:22.030Z,30.40
2022-12-10T01:19:54.148Z,28.70
2022-12-10T01:22:26.264Z,30.50
2022-12-10T01:24:58.791Z,29.50
2022-12-10T01:27:30.958Z,32.30
2022-12-10T01:30:03.462Z,32.10
2022-12-10T01:32:35.603Z,35.00
2022-12-10T01:35:08.516Z,33.30
2022-12-10T01:37:40.706Z,28.90
2022-12-10T01:40:15.209Z,31.70
2022-12-10T01:42:47.447Z,33.40
2022-12-10T01:45:21.155Z,32.40
2022-12-10T01:47:53.348Z,34.50
2022-12-10T01:50:25.695Z,33.10
2022-12-10T01:52:57.786Z,29.80
2022-12-10T01:55:50.642Z,29.90
2022-12-10T01:58:23.041Z,34.20
2022-12-10T02:01:07.137Z,34.00
2022-12-10T02:03:49.421Z,33.80
2022-12-10T02:06:33.390Z,32.40
2022-12-10T02:09:15.673Z,25.80
2022-12-10T02:11:53.237Z,27.80
2022-12-10T02:14:32.268Z,25.50
2022-12-10T02:17:09.204Z,24.80
2022-12-10T02:19:58.669Z,29.70
2022-12-10T02:22:36.549Z,46.10
2022-12-10T02:25:13.323Z,42.20
2022-12-10T02:27:54.682Z,38.30
2022-12-10T02:30:27.338Z,30.80
2022-12-10T02:33:02.577Z,32.10
2022-12-10T02:35:39.682Z,30.20
2022-12-10T02:38:18.024Z,26.60
2022-12-10T02:40:54.396Z,25.90
2022-12-10T02:43:29.247Z,24.30
2022-12-10T02:46:05.079Z,24.50
2022-12-10T02:48:39.421Z,24.80
2022-12-10T02:51:11.639Z,26.60
2022-12-10T02:53:47.469Z,25.20
2022-12-10T02:56:29.032Z,25.20
2022-12-10T02:59:17.253Z,25.20
2022-12-10T03:01:59.198Z,24.60
2022-12-10T03:04:38.485Z,29.80
2022-12-10T03:07:16.642Z,26.30
2022-12-10T03:09:54.239Z,25.30
2022-12-10T03:12:31.733Z,25.40
2022-12-10T03:15:07.434Z,27.30
2022-12-10T03:17:41.887Z,21.50
2022-12-10T03:20:17.682Z,21.60
2022-12-10T03:22:51.257Z,24.20
2022-12-10T03:25:27.095Z,23.20
2022-12-10T03:28:01.302Z,27.20
2022-12-10T03:30:38.439Z,27.10
2022-12-10T03:33:10.834Z,26.60
2022-12-10T03:35:43.901Z,26.20
2022-12-10T03:38:16.479Z,27.10
2022-12-10T03:40:48.566Z,28.20
2022-12-10T03:43:20.610Z,29.70
2022-12-10T03:45:52.759Z,30.00
2022-12-10T03:48:24.846Z,28.90
2022-12-10T03:50:56.910Z,33.20
2022-12-10T03:53:29.106Z,29.60
2022-12-10T03:56:01.255Z,28.60
2022-12-10T03:58:33.415Z,33.50
2022-12-10T04:01:05.708Z,40.60
2022-12-10T04:03:40.087Z,40.90
2022-12-10T04:06:15.541Z,39.50
2022-12-10T04:08:50.924Z,37.50
2022-12-10T04:11:25.417Z,44.30
2022-12-10T04:14:15.432Z,37.40
2022-12-10T04:16:47.528Z,40.20
2022-12-10T04:19:20.687Z,35.80
2022-12-10T04:22:10.546Z,38.00
2022-12-10T04:25:00.352Z,39.40
2022-12-10T04:27:35.037Z,38.70
2022-12-10T04:30:11.119Z,35.00
2022-12-10T04:32:43.572Z,33.60
2022-12-10T04:35:15.837Z,32.10
2022-12-10T04:37:47.903Z,32.60
2022-12-10T04:40:20.114Z,29.20
2022-12-10T04:42:52.184Z,32.50
2022-12-10T04:45:24.557Z,29.90
2022-12-10T04:47:56.572Z,32.30
2022-12-10T04:50:29.606Z,32.10
2022-12-10T04:53:01.727Z,66.60
2022-12-10T04:55:33.819Z,62.70
2022-12-10T04:58:05.885Z,63.50
2022-12-10T05:00:37.926Z,145.60
2022-12-10T05:03:10.071Z,90.70
2022-12-10T05:05:42.163Z,51.70
2022-12-10T05:08:14.396Z,32.80
2022-12-10T05:10:46.522Z,28.40
2022-12-10T05:13:18.972Z,31.80
2022-12-10T05:15:51.106Z,54.70
2022-12-10T05:18:23.230Z,44.10
2022-12-10T05:20:55.578Z,36.60
2022-12-10T05:23:30.796Z,51.40
2022-12-10T05:26:05.342Z,79.30
2022-12-10T05:28:39.429Z,55.50
2022-12-10T05:31:17.764Z,70.90
2022-12-10T05:33:50.934Z,55.30
2022-12-10T05:36:24.459Z,74.00
2022-12-10T05:38:57.855Z,56.00
2022-12-10T05:41:35.784Z,67.50
2022-12-10T05:44:08.903Z,60.70
2022-12-10T05:46:41.085Z,75.40
2022-12-10T05:49:13.567Z,91.20
2022-12-10T05:51:45.686Z,89.60
2022-12-10T05:54:17.776Z,49.70
2022-12-10T05:56:49.920Z,51.60
2022-12-10T05:59:22.101Z,33.70
2022-12-10T06:01:54.206Z,55.80
2022-12-10T06:04:26.377Z,61.70
2022-12-10T06:06:58.466Z,59.40
2022-12-10T06:09:30.555Z,91.80
2022-12-10T06:12:02.651Z,126.90
2022-12-10T06:14:35.301Z,111.10
2022-12-10T06:17:07.443Z,120.20
2022-12-10T06:19:39.510Z,121.40
2022-12-10T06:22:11.609Z,134.30
2022-12-10T06:24:43.744Z,122.40
2022-12-10T06:27:15.937Z,102.10
2022-12-10T06:29:48.203Z,138.20
2022-12-10T06:32:20.299Z,126.30
2022-12-10T06:34:52.425Z,128.30
2022-12-10T06:37:24.507Z,92.70
2022-12-10T06:39:56.756Z,103.50
2022-12-10T06:42:28.952Z,99.70
2022-12-10T06:45:01.140Z,106.90
2022-12-10T06:47:33.615Z,92.50
2022-12-10T06:50:07.239Z,71.80
2022-12-10T06:52:39.564Z,94.40
2022-12-10T06:55:12.141Z,73.90
2022-12-10T06:57:44.619Z,62.20
2022-12-10T07:00:21.976Z,50.60
2022-12-10T07:02:54.564Z,58.40
2022-12-10T07:05:26.885Z,48.80
2022-12-10T07:07:59.015Z,37.90
2022-12-10T07:10:32.090Z,41.60
2022-12-10T07:13:04.205Z,61.80
2022-12-10T07:15:36.706Z,63.90
2022-12-10T07:18:09.287Z,56.10
2022-12-10T07:20:41.402Z,61.10
2022-12-10T07:23:13.800Z,65.90
2022-12-10T07:25:45.894Z,54.10
2022-12-10T07:28:18.086Z,49.80
2022-12-10T07:30:50.178Z,390.40
2022-12-10T07:33:22.319Z,160.30
2022-12-10T07:35:54.642Z,93.40
2022-12-10T07:38:27.015Z,68.90
2022-12-10T07:40:59.134Z,62.20
2022-12-10T07:43:31.197Z,69.30
2022-12-10T07:46:09.253Z,400.50
2022-12-10T07:48:42.931Z,152.30
2022-12-10T07:51:16.761Z,211.60
2022-12-10T07:53:49.445Z,137.20
2022-12-10T07:56:22.712Z,95.30
2022-12-10T07:58:55.423Z,75.50
2022-12-10T08:01:28.618Z,50.30
2022-12-10T08:04:00.781Z,60.50
2022-12-10T08:06:32.983Z,59.30
2022-12-10T08:09:05.146Z,59.50
2022-12-10T08:11:37.217Z,56.80
2022-12-10T08:14:09.708Z,53.40
2022-12-10T08:16:41.780Z,39.60
2022-12-10T08:19:20.963Z,39.00
2022-12-10T08:21:54.534Z,42.80
2022-12-10T08:24:26.649Z,46.90
2022-12-10T08:26:58.695Z,39.40
2022-12-10T08:29:30.832Z,46.90
2022-12-10T08:32:03.018Z,38.20
2022-12-10T08:34:35.323Z,36.70
2022-12-10T08:37:12.044Z,33.70
2022-12-10T08:39:44.577Z,36.40
2022-12-10T08:42:16.920Z,32.00
2022-12-10T08:44:49.013Z,37.30
2022-12-10T08:47:21.769Z,29.40
2022-12-10T08:49:53.863Z,32.50
2022-12-10T08:52:26.081Z,44.00
2022-12-10T08:54:58.405Z,78.50
2022-12-10T08:57:30.520Z,117.40
2022-12-10T09:00:02.719Z,102.80
2022-12-10T09:02:35.232Z,170.80
2022-12-10T09:05:09.154Z,193.30
2022-12-10T09:07:41.295Z,201.20
2022-12-10T09:10:14.407Z,127.10
2022-12-10T09:12:46.550Z,113.40
2022-12-10T09:15:18.875Z,50.00
2022-12-10T09:17:51.066Z,35.00
2022-12-10T09:20:23.136Z,37.60
2022-12-10T09:22:55.249Z,48.90
2022-12-10T09:25:27.748Z,48.80
2022-12-10T09:27:59.841Z,44.30
2022-12-10T09:30:32.009Z,70.60
2022-12-10T09:33:04.697Z,52.70
2022-12-10T09:35:36.806Z,56.80
2022-12-10T09:38:09.281Z,50.30
2022-12-10T09:40:47.442Z,57.80
2022-12-10T09:43:25.804Z,55.70
2022-12-10T09:46:08.837Z,46.10
2022-12-10T09:48:55.183Z,51.50
2022-12-10T09:51:31.033Z,49.90
2022-12-10T09:54:05.256Z,55.10
2022-12-10T09:56:41.018Z,58.30
2022-12-10T09:59:20.522Z,55.80
2022-12-10T10:02:01.699Z,65.10
2022-12-10T10:04:33.915Z,62.60
2022-12-10T10:07:08.771Z,54.90
2022-12-10T10:09:43.688Z,39.20
2022-12-10T10:14:48.398Z,57.40
2022-12-10T10:17:31.357Z,84.50
2022-12-10T10:20:05.767Z,103.70
2022-12-10T10:22:37.832Z,87.80
2022-12-10T10:25:18.271Z,65.10
2022-12-10T10:27:50.284Z,59.30
2022-12-10T10:30:25.457Z,49.70
2022-12-10T10:32:59.714Z,46.40
2022-12-10T10:35:35.569Z,37.40
2022-12-10T10:38:16.005Z,33.50
2022-12-10T10:40:53.222Z,38.00
2022-12-10T10:43:28.955Z,31.40
2022-12-10T10:46:05.933Z,28.80
2022-12-10T10:48:38.148Z,29.80
2022-12-10T10:51:19.760Z,38.20
2022-12-10T10:53:53.850Z,38.50
2022-12-10T10:56:27.607Z,34.70
2022-12-10T10:59:03.971Z,37.90
2022-12-10T11:01:49.914Z,39.30
2022-12-10T11:04:30.297Z,42.60
2022-12-10T11:07:05.564Z,55.20
2022-12-10T11:09:39.628Z,59.40
2022-12-10T11:12:32.198Z,46.20
2022-12-10T11:15:16.166Z,46.60
2022-12-10T11:17:53.175Z,46.50
2022-12-10T11:20:28.796Z,46.60
2022-12-10T11:23:03.245Z,46.80
2022-12-10T11:25:46.190Z,50.90
2022-12-10T11:28:34.869Z,67.10
2022-12-10T11:31:25.189Z,65.60
2022-12-10T11:34:07.673Z,64.00
2022-12-10T11:36:46.729Z,70.20
2022-12-10T11:39:35.214Z,66.00
2022-12-10T11:42:14.977Z,62.10
2022-12-10T11:44:56.129Z,67.20
2022-12-10T11:47:44.836Z,114.60
2022-12-10T11:50:27.806Z,101.00
2022-12-10T11:53:22.888Z,153.70
2022-12-10T11:56:06.218Z,88.40
2022-12-10T11:58:54.797Z,56.80
2022-12-10T12:01:38.281Z,49.60
2022-12-10T12:04:26.446Z,51.40
2022-12-10T12:07:11.137Z,61.90
2022-12-10T12:09:56.664Z,66.60
2022-12-10T12:12:37.665Z,42.80
2022-12-10T12:15:21.410Z,37.40
2022-12-10T12:17:58.642Z,66.80
2022-12-10T12:20:34.599Z,68.70
2022-12-10T12:23:17.730Z,66.80
2022-12-10T12:25:53.887Z,73.00
2022-12-10T12:28:32.542Z,45.70
2022-12-10T12:31:08.149Z,43.00
2022-12-10T12:33:47.390Z,42.20
2022-12-10T12:36:23.426Z,51.90
2022-12-10T12:39:00.815Z,40.50
2022-12-10T12:41:42.198Z,42.50
2022-12-10T12:44:21.895Z,84.60
2022-12-10T12:46:54.845Z,68.80
2022-12-10T12:49:32.590Z,78.50
2022-12-10T12:52:09.967Z,52.40
2022-12-10T12:54:42.981Z,42.90
2022-12-10T12:57:23.938Z,45.40
2022-12-10T13:00:04.240Z,51.70
2022-12-10T13:02:51.080Z,41.40
2022-12-10T13:05:30.108Z,39.10
2022-12-10T13:08:33.819Z,41.40
2022-12-10T13:11:31.332Z,40.70
2022-12-10T13:14:32.681Z,49.00
2022-12-10T13:17:25.582Z,62.20
2022-12-10T13:20:18.334Z,95.30
2022-12-10T13:22:59.923Z,1140.00
2022-12-10T13:25:59.010Z,435.40
2022-12-10T13:28:42.761Z,1031.80
2022-12-10T13:31:36.503Z,958.10
2022-12-10T13:34:32.412Z,487.10
2022-12-10T13:40:02.885Z,119.60
2022-12-10T13:42:54.739Z,82.80
2022-12-10T13:45:36.917Z,67.50
2022-12-10T13:48:33.341Z,59.60
2022-12-10T13:51:25.952Z,69.00
2022-12-10T13:54:18.521Z,54.00
2022-12-10T13:57:01.675Z,51.30
2022-12-10T13:59:44.095Z,104.60
2022-12-10T14:02:34.856Z,87.40
2022-12-10T14:05:29.893Z,141.30
2022-12-10T14:08:04.707Z,60.40
2022-12-10T14:10:38.989Z,46.40
2022-12-10T14:13:15.458Z,49.10
2022-12-10T14:15:55.384Z,38.20
2022-12-10T14:18:29.297Z,38.20
2022-12-10T14:21:05.660Z,42.20
2022-12-10T14:23:48.653Z,34.60
2022-12-10T14:26:29.685Z,41.00
2022-12-10T14:29:12.399Z,37.00
2022-12-10T14:31:50.083Z,45.30
2022-12-10T14:34:27.154Z,47.30
2022-12-10T14:37:04.339Z,59.50
2022-12-10T14:39:40.555Z,70.80
2022-12-10T14:42:18.352Z,76.40
2022-12-10T14:44:58.559Z,73.20
2022-12-10T14:47:34.695Z,50.30
2022-12-10T14:50:12.495Z,41.10
2022-12-10T14:52:46.784Z,55.20
2022-12-10T14:55:22.197Z,61.80
2022-12-10T14:57:58.932Z,70.50
2022-12-10T15:00:31.488Z,97.60
2022-12-10T15:03:10.545Z,90.10
2022-12-10T15:05:42.858Z,260.20
2022-12-10T15:08:19.948Z,163.80
2022-12-10T15:10:56.955Z,190.90
2022-12-10T15:13:41.023Z,168.20
2022-12-10T15:16:21.096Z,108.70
2022-12-10T15:18:55.907Z,107.30
2022-12-10T15:21:28.716Z,73.30
2022-12-10T15:24:18.958Z,134.60
2022-12-10T15:26:52.819Z,63.10
2022-12-10T15:29:36.995Z,34.10
2022-12-10T15:32:16.387Z,31.90
2022-12-10T15:34:51.285Z,35.60
2022-12-10T15:37:26.762Z,35.10
2022-12-10T15:40:02.331Z,33.90
2022-12-10T15:42:41.972Z,32.90
2022-12-10T15:45:27.021Z,43.80
2022-12-10T15:48:00.876Z,33.20
2022-12-10T15:50:33.173Z,27.40
2022-12-10T15:53:05.447Z,31.40
2022-12-10T15:55:37.534Z,28.70
2022-12-10T15:58:14.799Z,27.60
2022-12-10T16:00:47.937Z,29.90
2022-12-10T16:03:20.766Z,34.50
2022-12-10T16:05:52.889Z,29.60
2022-12-10T16:08:28.101Z,30.70
2022-12-10T16:11:05.162Z,33.00
2022-12-10T16:13:41.479Z,29.20
2022-12-10T16:16:14.610Z,37.70
2022-12-10T16:18:47.000Z,34.30
2022-12-10T16:21:19.467Z,30.40
2022-12-10T16:23:51.690Z,42.80
2022-12-10T16:26:24.979Z,32.80
2022-12-10T16:28:57.045Z,26.50
2022-12-10T16:31:29.153Z,27.50
2022-12-10T16:34:01.436Z,28.60
2022-12-10T16:36:33.832Z,29.70
2022-12-10T16:39:06.769Z,30.90
2022-12-10T16:41:39.270Z,31.90
2022-12-10T16:44:11.643Z,37.30
2022-12-10T16:46:43.784Z,28.80
2022-12-10T16:49:15.935Z,27.80
2022-12-10T16:51:48.032Z,33.80
2022-12-10T16:54:20.213Z,36.60
2022-12-10T16:56:52.303Z,32.40
2022-12-10T16:59:24.728Z,27.60
2022-12-10T17:01:56.920Z,32.00
2022-12-10T17:04:29.193Z,23.80
2022-12-10T17:07:01.309Z,30.20
2022-12-10T17:09:33.408Z,28.10
2022-12-10T17:12:06.665Z,28.10
2022-12-10T17:14:42.397Z,25.00
2022-12-10T17:17:15.277Z,24.80
2022-12-10T17:19:47.375Z,27.00
2022-12-10T17:22:19.517Z,27.30
2022-12-10T17:24:51.658Z,30.20
2022-12-10T17:27:24.440Z,35.60
2022-12-10T17:29:57.862Z,29.00
2022-12-10T17:32:30.810Z,22.30
2022-12-10T17:35:02.867Z,36.00
2022-12-10T17:37:35.981Z,21.30
2022-12-10T17:40:16.931Z,25.80
2022-12-10T17:42:49.713Z,23.70
2022-12-10T17:45:22.952Z,24.70
2022-12-10T17:47:55.252Z,24.00
2022-12-10T17:50:32.592Z,22.00
2022-12-10T17:53:06.680Z,36.60
2022-12-10T17:55:42.625Z,35.00
2022-12-10T17:58:21.529Z,29.80
2022-12-10T18:00:54.659Z,28.80
2022-12-10T18:03:26.847Z,35.40
2022-12-10T18:05:59.043Z,29.10
2022-12-10T18:08:31.231Z,28.20
2022-12-10T18:11:03.457Z,25.20
2022-12-10T18:13:35.572Z,30.50
2022-12-10T18:16:12.234Z,25.90
2022-12-10T18:18:44.922Z,50.20
2022-12-10T18:21:19.531Z,30.90
2022-12-10T18:23:51.847Z,24.00
2022-12-10T18:26:26.986Z,25.60
2022-12-10T18:29:01.330Z,20.90
2022-12-10T18:31:36.032Z,23.90
2022-12-10T18:34:12.219Z,24.70
2022-12-10T18:36:46.617Z,31.50
2022-12-10T18:39:21.885Z,32.10
2022-12-10T18:41:54.970Z,50.20
2022-12-10T18:44:30.287Z,60.40
2022-12-10T18:47:02.383Z,55.50
2022-12-10T18:49:34.522Z,51.90
2022-12-10T18:52:07.713Z,43.70
2022-12-10T18:54:41.168Z,48.80
2022-12-10T19:00:17.935Z,56.90
2022-12-10T19:02:50.399Z,55.90
2022-12-10T19:05:22.603Z,76.60
2022-12-10T19:07:54.857Z,120.20
2022-12-10T19:10:27.281Z,76.50
2022-12-10T19:12:59.413Z,61.40
2022-12-10T19:15:31.743Z,72.60
2022-12-10T19:18:04.575Z,57.20
2022-12-10T19:20:37.146Z,60.60
2022-12-10T19:23:09.392Z,25.30
2022-12-10T19:25:41.458Z,28.20
2022-12-10T19:28:19.362Z,31.50
2022-12-10T19:30:52.531Z,21.90
2022-12-10T19:33:24.849Z,19.90
2022-12-10T19:35:57.273Z,20.70
2022-12-10T19:38:29.522Z,19.80
2022-12-10T19:41:01.662Z,23.90
2022-12-10T19:43:33.727Z,27.20
2022-12-10T19:46:13.011Z,32.60
2022-12-10T19:48:45.999Z,27.80
2022-12-10T19:51:18.486Z,32.40
2022-12-10T19:53:55.143Z,39.10
2022-12-10T19:56:30.209Z,34.60
2022-12-10T19:59:03.963Z,33.90
2022-12-10T20:01:36.153Z,40.10
2022-12-10T20:04:08.685Z,35.40
2022-12-10T20:06:44.182Z,34.50
2022-12-10T20:09:21.007Z,27.10
2022-12-10T20:11:53.485Z,30.20
2022-12-10T20:14:26.342Z,25.10
2022-12-10T20:16:58.427Z,27.50
2022-12-10T20:19:30.577Z,23.40
2022-12-10T20:22:05.880Z,26.70
2022-12-10T20:24:38.935Z,25.70
2022-12-10T20:27:15.223Z,25.40
2022-12-10T20:29:47.415Z,24.30
2022-12-10T20:32:20.429Z,21.90
2022-12-10T20:34:52.571Z,39.40
2022-12-10T20:37:24.586Z,32.90
2022-12-10T20:40:22.350Z,43.00
2022-12-10T20:42:48.841Z,103.20
2022-12-10T20:45:21.627Z,69.40
2022-12-10T20:47:53.843Z,54.10
2022-12-10T20:50:26.167Z,33.60
2022-12-10T20:52:58.332Z,27.30
2022-12-10T20:55:30.588Z,28.80
2022-12-10T20:58:02.797Z,29.30
2022-12-10T21:00:34.938Z,42.30
2022-12-10T21:03:07.084Z,60.70
2022-12-10T21:05:39.301Z,34.50
2022-12-10T21:08:13.086Z,25.80
2022-12-10T21:10:55.008Z,34.20
2022-12-10T21:13:29.199Z,51.40
2022-12-10T21:16:03.593Z,84.30
2022-12-10T21:18:35.938Z,39.30
2022-12-10T21:21:08.419Z,27.40
2022-12-10T21:23:40.743Z,39.60
2022-12-10T21:26:14.796Z,49.80
2022-12-10T21:28:47.349Z,52.40
2022-12-10T21:31:22.311Z,71.60
2022-12-10T21:36:26.027Z,228.10
2022-12-10T21:38:58.939Z,466.00
2022-12-10T21:41:48.799Z,460.70
2022-12-10T21:44:21.096Z,1468.10
2022-12-10T21:46:53.336Z,593.50
2022-12-10T21:49:25.507Z,447.70
2022-12-10T21:51:58.932Z,277.20
2022-12-10T21:54:31.354Z,213.80
2022-12-10T21:57:03.499Z,385.50
2022-12-10T21:59:35.639Z,211.70
2022-12-10T22:02:08.037Z,106.80
2022-12-10T22:04:40.650Z,67.90
2022-12-10T22:07:12.886Z,110.30
2022-12-10T22:09:44.978Z,86.50
2022-12-10T22:12:17.096Z,41.20
2022-12-10T22:14:49.211Z,34.30
2022-12-10T22:17:22.098Z,44.40
2022-12-10T22:19:54.291Z,28.20
2022-12-10T22:22:26.408Z,21.70
2022-12-10T22:24:58.549Z,22.70
2022-12-10T22:27:33.346Z,27.50
2022-12-10T22:30:08.420Z,23.50
2022-12-10T22:35:12.649Z,49.80
2022-12-10T22:37:44.848Z,29.60
2022-12-10T22:40:17.141Z,31.80
2022-12-10T22:42:49.977Z,24.50
2022-12-10T22:45:22.860Z,19.80
2022-12-10T22:47:54.977Z,21.10
2022-12-10T22:50:28.295Z,21.10
2022-12-10T22:53:00.362Z,17.70
2022-12-10T22:55:32.529Z,17.80
2022-12-10T22:58:05.857Z,17.80
2022-12-10T23:00:38.134Z,20.90
2022-12-10T23:03:10.265Z,19.30
2022-12-10T23:05:42.380Z,18.10
2022-12-10T23:08:14.597Z,15.40
2022-12-10T23:10:46.899Z,17.40
2022-12-10T23:13:22.015Z,17.80
2022-12-10T23:15:55.624Z,21.80
2022-12-10T23:18:27.880Z,26.00
2022-12-10T23:21:00.202Z,21.70
2022-12-10T23:23:32.523Z,22.20
2022-12-10T23:26:05.820Z,18.50
2022-12-10T23:28:38.012Z,20.20
2022-12-10T23:31:11.476Z,24.10
2022-12-10T23:33:44.189Z,23.70
2022-12-10T23:36:16.360Z,33.60
2022-12-10T23:38:48.604Z,30.90
2022-12-10T23:41:20.748Z,36.70
2022-12-10T23:43:57.191Z,33.90
2022-12-10T23:46:29.744Z,36.00
2022-12-10T23:49:02.244Z,23.70
2022-12-10T23:51:34.337Z,22.50
2022-12-10T23:54:06.760Z,26.40
2022-12-10T23:56:38.851Z,23.80
2022-12-10T23:59:11.300Z,22.10
